Time;durP1;ratioP1;P1;durP2;ratioP2;P2;SDS_P1;SDS_P2;PMS_P1;PMS_P2;Temp;Humidity;BMP_temperature;BMP_pressure;BME280_temperature;BME280_humidity;BME280_pressure;Samples;Min_cycle;Max_cycle;Signal;HPM_P1;HPM_P2
2022/02/20 00:00:06;;;;;;;8.52;2.78;;;6.10;99.90;;;;;;5050420;28;20412;-59
2022/02/20 00:02:33;;;;;;;9.98;3.20;;;6.20;99.90;;;;;;5049855;28;20938;-58
2022/02/20 00:05:00;;;;;;;9.77;2.35;;;6.30;99.90;;;;;;5050636;28;20470;-59
2022/02/20 00:07:26;;;;;;;8.38;2.47;;;6.30;99.90;;;;;;5050744;28;20421;-59
2022/02/20 00:09:53;;;;;;;8.40;2.88;;;6.40;99.90;;;;;;5050749;28;20976;-59
2022/02/20 00:12:20;;;;;;;6.57;2.13;;;6.50;99.90;;;;;;5050492;28;20409;-59
2022/02/20 00:14:48;;;;;;;8.55;2.83;;;6.60;99.90;;;;;;5051048;28;20940;-59
2022/02/20 00:17:14;;;;;;;10.48;2.58;;;6.50;99.90;;;;;;5050650;28;20417;-59
2022/02/20 00:19:42;;;;;;;10.48;2.78;;;6.60;99.90;;;;;;5050296;28;20761;-55
2022/02/20 00:22:08;;;;;;;8.03;2.47;;;6.60;99.90;;;;;;5051509;28;20201;-58
2022/02/20 00:24:35;;;;;;;7.33;2.90;;;6.60;99.90;;;;;;5051741;28;20289;-59
2022/02/20 00:27:02;;;;;;;6.47;1.70;;;6.60;99.90;;;;;;5051422;28;20214;-59
2022/02/20 00:29:28;;;;;;;6.13;1.33;;;6.50;95.60;;;;;;5051597;28;20205;-56
2022/02/20 00:31:56;;;;;;;4.93;2.20;;;6.40;29.70;;;;;;5050565;28;20508;-59
2022/02/20 00:34:23;;;;;;;5.50;2.30;;;6.40;1.00;;;;;;5051470;28;20245;-61
2022/02/20 00:36:50;;;;;;;7.15;2.45;;;6.40;1.00;;;;;;5050462;28;20421;-57
2022/02/20 00:39:16;;;;;;;3.50;1.77;;;6.40;1.00;;;;;;5051364;28;20223;-58
2022/02/20 00:41:43;;;;;;;;;;;6.30;1.00;;;;;;5052137;28;20118;-59
2022/02/20 00:44:09;;;;;;;7.37;2.07;;;6.20;1.00;;;;;;5051167;28;20627;-58
2022/02/20 00:46:36;;;;;;;2.23;1.20;;;6.10;1.00;;;;;;5051269;28;20215;-57
2022/02/20 00:49:04;;;;;;;5.78;2.30;;;6.00;1.00;;;;;;5050045;28;20417;-59
2022/02/20 00:51:31;;;;;;;7.03;2.60;;;6.00;1.00;;;;;;5049968;28;20781;-59
2022/02/20 00:53:58;;;;;;;4.50;2.03;;;6.10;1.00;;;;;;5051081;28;20506;-58
2022/02/20 00:56:24;;;;;;;;;;;6.00;1.00;;;;;;5051275;28;20499;-54
2022/02/20 00:58:51;;;;;;;9.00;2.20;;;6.00;1.00;;;;;;5051571;28;20219;-58
2022/02/20 01:01:17;;;;;;;8.40;2.95;;;5.90;1.00;;;;;;5050012;28;20421;-56
2022/02/20 01:03:44;;;;;;;7.13;2.45;;;5.90;1.00;;;;;;5049901;28;20413;-58
2022/02/20 01:06:12;;;;;;;6.78;2.58;;;5.90;1.00;;;;;;5050183;28;20425;-59
2022/02/20 01:08:39;;;;;;;7.07;3.00;;;5.90;1.00;;;;;;5049934;28;20413;-57
2022/02/20 01:11:06;;;;;;;10.97;2.60;;;5.90;1.00;;;;;;5051316;28;20208;-57
2022/02/20 01:13:33;;;;;;;4.17;2.17;;;5.80;1.00;;;;;;5053552;28;20204;-57
2022/02/20 01:15:59;;;;;;;;;;;5.70;1.00;;;;;;5055327;28;20045;-59
2022/02/20 01:18:26;;;;;;;;;;;5.60;1.00;;;;;;5055059;28;19940;-57
2022/02/20 01:20:52;;;;;;;;;;;5.60;1.00;;;;;;5055462;28;20261;-57
2022/02/20 01:23:21;;;;;;;5.63;1.90;;;5.50;1.00;;;;;;5054555;28;20879;-59
2022/02/20 01:25:48;;;;;;;;;;;5.40;1.00;;;;;;5055267;28;20126;-59
2022/02/20 01:28:15;;;;;;;6.97;2.22;;;5.40;1.00;;;;;;5053472;28;20417;-59
2022/02/20 01:30:42;;;;;;;6.88;2.45;;;5.40;1.00;;;;;;5053338;28;20406;-57
2022/02/20 01:33:09;;;;;;;3.08;1.50;;;5.40;1.00;;;;;;5053441;28;20413;-59
2022/02/20 01:35:35;;;;;;;5.43;1.80;;;5.40;48.90;;;;;;5052728;28;20429;-59
2022/02/20 01:38:02;;;;;;;5.28;1.50;;;5.50;1.00;;;;;;5053411;28;20784;-59
2022/02/20 01:40:31;;;;;;;7.07;1.90;;;5.50;99.90;;;;;;5053404;28;20471;-57
2022/02/20 01:42:58;;;;;;;6.45;2.30;;;5.40;99.90;;;;;;5053037;28;20492;-59
2022/02/20 01:45:25;;;;;;;7.05;2.55;;;5.50;99.90;;;;;;5053481;28;20413;-59
2022/02/20 01:47:51;;;;;;;6.93;2.55;;;5.40;99.90;;;;;;5053266;28;20413;-59
2022/02/20 01:50:18;;;;;;;5.72;2.75;;;5.40;99.90;;;;;;5053000;28;20891;-59
2022/02/20 01:52:46;;;;;;;10.93;2.92;;;5.40;99.90;;;;;;5053302;28;20413;-60
2022/02/20 01:55:14;;;;;;;5.93;2.72;;;5.40;1.00;;;;;;5053110;28;20479;-60
2022/02/20 01:57:42;;;;;;;8.57;3.35;;;5.50;1.00;;;;;;5052986;28;20830;-60
2022/02/20 02:00:12;;;;;;;7.07;2.60;;;5.50;99.90;;;;;;5052614;28;20417;-60
2022/02/20 02:02:39;;;;;;;8.25;2.70;;;5.50;1.00;;;;;;5052741;28;20421;-60
2022/02/20 02:05:07;;;;;;;7.63;2.85;;;5.50;99.90;;;;;;5052905;28;20416;-59
2022/02/20 02:07:34;;;;;;;6.03;3.08;;;5.50;99.90;;;;;;5052975;28;20784;-59
2022/02/20 02:10:01;;;;;;;7.43;2.60;;;5.50;99.90;;;;;;5052537;28;20405;-59
2022/02/20 02:12:28;;;;;;;8.00;2.70;;;5.50;99.90;;;;;;5052703;28;20937;-59
2022/02/20 02:14:59;;;;;;;7.30;2.65;;;5.30;1.00;;;;;;5052647;28;20425;-59
2022/02/20 02:17:26;;;;;;;9.23;2.77;;;5.40;99.90;;;;;;5052514;28;20424;-56
2022/02/20 02:19:53;;;;;;;10.15;3.03;;;5.30;99.90;;;;;;5052716;28;20416;-59
2022/02/20 02:22:22;;;;;;;9.25;2.78;;;5.40;99.90;;;;;;5052134;28;20413;-56
2022/02/20 02:24:49;;;;;;;9.33;2.83;;;5.40;99.90;;;;;;5051833;28;20436;-60
2022/02/20 02:27:17;;;;;;;9.30;3.00;;;5.50;1.00;;;;;;5052128;28;20554;-59
2022/02/20 02:29:45;;;;;;;7.13;2.70;;;5.40;99.90;;;;;;5052300;28;20417;-59
2022/02/20 02:32:12;;;;;;;6.30;2.53;;;5.40;22.00;;;;;;5052501;28;20838;-58
2022/02/20 02:34:40;;;;;;;7.57;2.80;;;5.40;1.00;;;;;;5051943;28;20421;-58
2022/02/20 02:37:07;;;;;;;8.55;3.10;;;5.30;99.90;;;;;;5052331;28;20413;-58
2022/02/20 02:39:35;;;;;;;4.68;2.67;;;5.30;99.90;;;;;;5052129;28;20497;-59
2022/02/20 02:42:04;;;;;;;8.02;3.13;;;5.40;99.90;;;;;;5052406;28;20417;-57
2022/02/20 02:44:30;;;;;;;6.32;2.63;;;5.40;99.90;;;;;;5052002;28;20428;-57
2022/02/20 02:46:57;;;;;;;7.80;3.05;;;5.40;99.90;;;;;;5052076;28;20499;-58
2022/02/20 02:49:24;;;;;;;8.23;2.80;;;5.30;1.00;;;;;;5051902;28;20459;-55
2022/02/20 02:51:51;;;;;;;5.97;2.72;;;5.40;1.00;;;;;;5051825;28;20794;-59
2022/02/20 02:54:18;;;;;;;7.50;2.70;;;5.30;1.00;;;;;;5052034;28;20958;-59
2022/02/20 02:56:46;;;;;;;6.28;3.20;;;5.30;1.00;;;;;;5051785;28;20443;-57
2022/02/20 02:59:13;;;;;;;6.97;3.10;;;5.30;1.00;;;;;;5052357;28;20414;-59
2022/02/20 03:01:42;;;;;;;7.13;2.95;;;5.30;99.90;;;;;;5051754;28;20420;-59
2022/02/20 03:04:08;;;;;;;6.30;3.00;;;5.30;1.00;;;;;;5051887;28;20413;-59
2022/02/20 03:06:35;;;;;;;7.40;3.03;;;5.30;99.90;;;;;;5051286;28;20471;-59
2022/02/20 03:09:02;;;;;;;6.93;3.30;;;5.30;99.90;;;;;;5051645;28;20428;-59
2022/02/20 03:11:29;;;;;;;6.30;2.90;;;5.30;99.90;;;;;;5051793;28;20408;-58
2022/02/20 03:13:57;;;;;;;5.43;2.95;;;5.20;90.00;;;;;;5051597;28;20416;-58
2022/02/20 03:16:24;;;;;;;6.25;3.30;;;5.20;99.90;;;;;;5051486;28;20405;-59
2022/02/20 03:18:50;;;;;;;7.10;3.00;;;5.30;1.00;;;;;;5051244;28;20417;-59
2022/02/20 03:21:18;;;;;;;6.03;2.97;;;5.20;99.90;;;;;;5051508;28;20500;-59
2022/02/20 03:23:44;;;;;;;6.10;2.30;;;5.20;99.90;;;;;;5051899;28;20843;-58
2022/02/20 03:26:11;;;;;;;6.10;2.10;;;5.10;99.90;;;;;;5050844;28;20792;-58
2022/02/20 03:28:38;;;;;;;5.30;2.50;;;5.10;99.90;;;;;;5051541;28;20425;-59
2022/02/20 03:31:06;;;;;;;4.70;2.55;;;5.10;1.00;;;;;;5051064;28;20425;-58
2022/02/20 03:33:32;;;;;;;7.82;2.40;;;5.20;1.00;;;;;;5050965;28;20421;-59
2022/02/20 03:35:59;;;;;;;6.70;2.85;;;5.30;1.00;;;;;;5050921;28;20425;-59
2022/02/20 03:38:26;;;;;;;8.48;2.97;;;5.20;99.90;;;;;;5050972;28;20884;-58
2022/02/20 03:40:52;;;;;;;6.93;3.33;;;5.30;99.90;;;;;;5050993;28;20413;-59
2022/02/20 03:43:19;;;;;;;9.63;3.17;;;5.20;99.90;;;;;;5051335;28;20409;-59
2022/02/20 03:45:46;;;;;;;7.03;3.15;;;5.20;99.90;;;;;;5051096;28;20417;-59
2022/02/20 03:48:14;;;;;;;8.63;3.50;;;5.20;1.00;;;;;;5050470;28;20417;-59
2022/02/20 03:50:41;;;;;;;7.85;3.95;;;5.20;99.90;;;;;;5051066;28;20420;-59
2022/02/20 03:53:07;;;;;;;7.43;3.50;;;5.30;1.00;;;;;;5050281;28;20464;-58
2022/02/20 03:55:34;;;;;;;4.80;3.50;;;5.20;99.90;;;;;;5050611;28;20479;-57
2022/02/20 03:58:01;;;;;;;9.10;3.92;;;5.20;1.00;;;;;;5050585;28;20413;-57
2022/02/20 04:00:28;;;;;;;7.70;4.63;;;5.20;99.90;;;;;;5050897;28;20413;-59
2022/02/20 04:02:55;;;;;;;8.02;3.80;;;5.30;99.90;;;;;;5050789;28;20888;-59
2022/02/20 04:05:23;;;;;;;8.23;3.57;;;5.20;21.10;;;;;;5050610;28;20417;-57
2022/02/20 04:07:49;;;;;;;8.68;3.83;;;5.20;66.40;;;;;;5050534;28;20819;-58
2022/02/20 04:10:17;;;;;;;8.75;3.67;;;5.20;1.00;;;;;;5050734;28;20431;-58
2022/02/20 04:12:44;;;;;;;8.65;3.38;;;5.20;99.90;;;;;;5050503;28;20454;-58
2022/02/20 04:15:11;;;;;;;6.05;3.53;;;5.20;99.90;;;;;;5050458;28;20425;-59
2022/02/20 04:17:39;;;;;;;8.17;3.60;;;5.10;1.00;;;;;;5050655;28;20491;-59
2022/02/20 04:20:07;;;;;;;6.70;3.33;;;5.10;99.90;;;;;;5050278;28;20492;-59
2022/02/20 04:22:36;;;;;;;7.00;3.80;;;5.10;21.40;;;;;;5050584;28;21110;-55
2022/02/20 04:25:03;;;;;;;6.47;2.70;;;5.10;99.90;;;;;;5050381;28;20903;-56
2022/02/20 04:27:30;;;;;;;6.38;3.03;;;5.00;99.90;;;;;;5055300;28;20419;-58
2022/02/20 04:29:57;;;;;;;7.00;2.60;;;5.10;1.00;;;;;;5070197;28;20801;-59
2022/02/20 04:32:23;;;;;;;6.72;3.15;;;5.00;99.90;;;;;;5070177;28;20411;-57
2022/02/20 04:34:50;;;;;;;8.00;3.30;;;4.90;99.90;;;;;;5070181;28;20940;-57
2022/02/20 04:37:17;;;;;;;7.30;2.88;;;4.90;1.00;;;;;;5070490;28;20418;-59
2022/02/20 04:39:45;;;;;;;7.97;2.42;;;4.90;61.60;;;;;;5070449;28;20507;-59
2022/02/20 04:42:11;;;;;;;8.52;2.90;;;5.00;99.90;;;;;;5070177;28;20415;-58
2022/02/20 04:44:38;;;;;;;7.72;2.60;;;4.80;99.90;;;;;;5070033;28;20449;-59
2022/02/20 04:47:05;;;;;;;5.60;2.75;;;4.90;99.90;;;;;;5070680;28;20496;-58
2022/02/20 04:49:32;;;;;;;6.95;3.08;;;4.80;99.90;;;;;;5073939;28;20427;-57
2022/02/20 04:51:59;;;;;;;7.75;2.80;;;4.70;57.70;;;;;;5074062;28;20901;-59
2022/02/20 04:54:25;;;;;;;8.55;2.95;;;4.60;99.90;;;;;;5074355;28;20760;-59
2022/02/20 04:56:53;;;;;;;6.03;2.90;;;4.70;99.90;;;;;;5073733;28;20423;-59
2022/02/20 04:59:20;;;;;;;7.35;2.85;;;4.60;1.00;;;;;;5074382;28;20403;-59
2022/02/20 05:01:47;;;;;;;6.15;2.80;;;4.50;1.00;;;;;;5073725;28;20427;-59
2022/02/20 05:04:14;;;;;;;6.40;3.70;;;4.40;1.00;;;;;;5074006;28;20415;-56
2022/02/20 05:06:41;;;;;;;8.10;4.00;;;4.40;99.90;;;;;;5073883;28;20419;-59
2022/02/20 05:09:07;;;;;;;8.18;3.20;;;4.40;99.90;;;;;;5073761;28;20422;-59
2022/02/20 05:11:34;;;;;;;8.82;3.03;;;4.30;99.90;;;;;;5073866;28;20411;-59
2022/02/20 05:14:02;;;;;;;6.20;3.00;;;4.40;99.90;;;;;;5073503;28;20419;-58
2022/02/20 05:16:30;;;;;;;8.80;3.38;;;4.30;99.90;;;;;;5073217;28;20427;-57
2022/02/20 05:18:57;;;;;;;7.88;3.10;;;4.20;99.90;;;;;;5073741;28;20763;-59
2022/02/20 05:21:24;;;;;;;7.88;3.30;;;4.20;99.90;;;;;;5073862;28;20418;-59
2022/02/20 05:23:51;;;;;;;6.45;3.40;;;4.20;1.00;;;;;;5073338;28;20902;-59
2022/02/20 05:26:18;;;;;;;7.30;3.90;;;4.10;99.90;;;;;;5073277;28;20441;-58
2022/02/20 05:28:44;;;;;;;7.63;3.95;;;4.10;1.00;;;;;;5073473;28;20411;-59
2022/02/20 05:31:13;;;;;;;6.28;3.45;;;4.10;99.90;;;;;;5073220;28;20809;-58
2022/02/20 05:33:39;;;;;;;10.23;3.50;;;4.20;1.00;;;;;;5073284;28;20503;-59
2022/02/20 05:36:08;;;;;;;8.57;4.40;;;4.20;99.90;;;;;;5072983;28;20423;-59
2022/02/20 05:38:34;;;;;;;12.48;4.22;;;4.20;22.70;;;;;;5073511;28;20415;-59
2022/02/20 05:41:01;;;;;;;11.27;4.40;;;4.20;1.00;;;;;;5073436;28;20415;-59
2022/02/20 05:43:28;;;;;;;8.90;5.25;;;4.30;1.00;;;;;;5072709;28;20423;-59
2022/02/20 05:45:55;;;;;;;7.93;4.40;;;4.30;99.90;;;;;;5073238;28;20415;-59
2022/02/20 05:48:22;;;;;;;11.10;4.70;;;4.20;99.90;;;;;;5073057;28;21040;-59
2022/02/20 05:50:51;;;;;;;12.63;4.40;;;4.20;99.90;;;;;;5073213;28;20430;-58
2022/02/20 05:53:18;;;;;;;8.80;4.72;;;4.30;99.90;;;;;;5073209;28;20457;-59
2022/02/20 05:55:45;;;;;;;9.05;4.90;;;4.30;99.90;;;;;;5072541;28;20973;-59
2022/02/20 05:58:12;;;;;;;11.27;4.88;;;4.30;1.00;;;;;;5072328;28;20943;-59
2022/02/20 06:00:38;;;;;;;11.10;5.00;;;4.40;1.00;;;;;;5071866;28;20411;-57
2022/02/20 06:03:05;;;;;;;9.82;5.30;;;4.30;38.20;;;;;;5073025;28;20486;-58
2022/02/20 06:05:33;;;;;;;11.05;5.32;;;4.30;99.90;;;;;;5072887;28;20418;-59
2022/02/20 06:08:00;;;;;;;14.25;5.78;;;4.40;99.90;;;;;;5072640;28;21045;-59
2022/02/20 06:10:27;;;;;;;12.48;6.18;;;4.30;1.00;;;;;;5072703;28;20415;-57
2022/02/20 06:12:53;;;;;;;15.05;6.45;;;4.20;1.00;;;;;;5072620;28;20967;-58
2022/02/20 06:15:20;;;;;;;15.73;6.37;;;4.20;1.00;;;;;;5073146;28;20423;-58
2022/02/20 06:17:47;;;;;;;13.55;6.70;;;4.30;34.40;;;;;;5072611;28;20407;-59
2022/02/20 06:20:14;;;;;;;13.02;6.65;;;4.20;93.60;;;;;;5072608;28;20812;-59
2022/02/20 06:22:42;;;;;;;11.68;7.05;;;4.30;99.90;;;;;;5072385;28;20464;-58
2022/02/20 06:25:09;;;;;;;14.43;7.20;;;4.30;99.90;;;;;;5072596;28;20412;-57
2022/02/20 06:27:36;;;;;;;13.15;7.03;;;4.20;99.90;;;;;;5072242;28;20422;-57
2022/02/20 06:30:03;;;;;;;13.32;7.28;;;4.20;99.90;;;;;;5072240;28;20437;-57
2022/02/20 06:32:30;;;;;;;18.63;7.83;;;4.30;99.90;;;;;;5072552;28;20506;-58
2022/02/20 06:34:57;;;;;;;14.93;7.70;;;4.30;99.90;;;;;;5071999;28;20828;-60
2022/02/20 06:37:23;;;;;;;16.55;7.93;;;4.30;99.90;;;;;;5072379;28;20423;-59
2022/02/20 06:39:51;;;;;;;15.88;8.15;;;4.40;99.90;;;;;;5071783;28;20414;-59
2022/02/20 06:42:18;;;;;;;17.43;8.17;;;4.40;99.90;;;;;;5072239;28;20412;-59
2022/02/20 06:44:45;;;;;;;18.25;8.15;;;4.50;99.90;;;;;;5072126;28;20422;-58
2022/02/20 06:47:12;;;;;;;19.50;7.55;;;4.50;99.90;;;;;;5072057;28;20469;-59
2022/02/20 06:49:39;;;;;;;18.60;7.07;;;4.60;99.90;;;;;;5071895;28;20415;-59
2022/02/20 06:52:05;;;;;;;19.48;7.05;;;4.70;99.90;;;;;;5071856;28;20932;-58
2022/02/20 06:54:32;;;;;;;16.77;7.00;;;4.80;99.90;;;;;;5071577;28;20415;-58
2022/02/20 06:57:01;;;;;;;16.67;6.70;;;4.90;99.90;;;;;;5071814;28;20423;-58
2022/02/20 06:59:27;;;;;;;16.88;6.75;;;5.00;99.90;;;;;;5071926;28;20407;-57
2022/02/20 07:01:54;;;;;;;19.15;6.70;;;5.00;99.90;;;;;;5071764;28;20414;-58
2022/02/20 07:04:21;;;;;;;19.05;6.80;;;5.10;99.90;;;;;;5071380;28;20423;-59
2022/02/20 07:06:48;;;;;;;17.48;6.35;;;5.10;99.90;;;;;;5071455;28;20423;-58
2022/02/20 07:09:14;;;;;;;20.08;7.00;;;5.20;99.90;;;;;;5071496;28;20414;-58
2022/02/20 07:11:42;;;;;;;19.92;6.63;;;5.20;99.90;;;;;;5071500;28;20415;-57
2022/02/20 07:14:10;;;;;;;17.60;6.53;;;5.30;99.90;;;;;;5071698;28;20415;-59
2022/02/20 07:16:37;;;;;;;19.63;6.45;;;5.30;99.90;;;;;;5071142;28;20451;-58
2022/02/20 07:19:04;;;;;;;16.75;6.18;;;5.40;99.90;;;;;;5071756;28;20489;-58
2022/02/20 07:21:31;;;;;;;17.27;5.90;;;5.40;99.90;;;;;;5070930;28;20820;-59
2022/02/20 07:23:59;;;;;;;16.73;6.10;;;5.50;99.90;;;;;;5071211;28;20894;-58
2022/02/20 07:26:29;;;;;;;18.33;5.65;;;5.60;99.90;;;;;;5071349;28;20494;-57
2022/02/20 07:28:56;;;;;;;18.25;5.72;;;5.60;99.90;;;;;;5071221;28;20502;-58
2022/02/20 07:31:26;;;;;;;16.52;5.15;;;5.70;99.90;;;;;;5071291;28;20407;-58
2022/02/20 07:33:54;;;;;;;14.50;5.75;;;5.70;99.90;;;;;;5070845;28;20422;-55
2022/02/20 07:36:21;;;;;;;19.75;6.18;;;5.60;99.90;;;;;;5071565;28;20767;-57
2022/02/20 07:38:48;;;;;;;22.58;5.97;;;5.70;99.90;;;;;;5070998;28;20415;-58
2022/02/20 07:41:14;;;;;;;18.75;5.60;;;5.80;99.90;;;;;;5071046;28;20469;-57
2022/02/20 07:43:44;;;;;;;16.90;5.43;;;5.70;99.90;;;;;;5070856;28;20912;-57
2022/02/20 07:46:11;;;;;;;16.23;5.13;;;5.80;99.90;;;;;;5070699;28;20477;-56
2022/02/20 07:48:40;;;;;;;17.67;5.25;;;5.80;99.90;;;;;;5070831;28;20426;-55
2022/02/20 07:51:07;;;;;;;18.67;5.15;;;5.90;99.90;;;;;;5070536;28;20422;-57
2022/02/20 07:53:34;;;;;;;16.53;4.90;;;5.90;99.90;;;;;;5070877;28;20496;-58
2022/02/20 07:56:01;;;;;;;12.68;4.60;;;6.00;99.90;;;;;;5070347;28;20427;-57
2022/02/20 07:58:27;;;;;;;16.47;5.20;;;6.00;99.90;;;;;;5070780;28;20418;-58
2022/02/20 08:00:54;;;;;;;12.80;4.13;;;6.10;99.90;;;;;;5071058;28;20890;-57
2022/02/20 08:03:21;;;;;;;13.05;4.45;;;6.10;99.90;;;;;;5070286;28;20419;-57
2022/02/20 08:05:49;;;;;;;15.02;4.90;;;6.20;99.90;;;;;;5070965;28;20416;-59
2022/02/20 08:08:15;;;;;;;15.05;4.78;;;6.20;99.90;;;;;;5070488;28;20898;-57
2022/02/20 08:10:42;;;;;;;16.33;4.95;;;6.30;99.90;;;;;;5071093;28;20415;-58
2022/02/20 08:13:09;;;;;;;10.80;4.13;;;6.40;99.90;;;;;;5070825;28;20423;-58
2022/02/20 08:15:35;;;;;;;14.23;4.30;;;6.40;99.90;;;;;;5070205;28;20426;-57
2022/02/20 08:18:02;;;;;;;11.27;4.35;;;6.50;99.90;;;;;;5070670;28;20430;-57
2022/02/20 08:20:29;;;;;;;9.90;3.40;;;6.60;99.90;;;;;;5071821;28;20217;-63
2022/02/20 08:22:57;;;;;;;9.63;3.33;;;6.60;99.90;;;;;;5071247;28;20621;-58
2022/02/20 08:25:24;;;;;;;8.53;4.13;;;6.60;99.90;;;;;;5071558;28;20231;-59
2022/02/20 08:27:50;;;;;;;5.30;2.17;;;6.60;99.90;;;;;;5071761;28;20612;-59
2022/02/20 08:30:17;;;;;;;9.33;3.07;;;6.60;99.90;;;;;;5071840;28;20354;-59
2022/02/20 08:32:44;;;;;;;8.30;2.70;;;6.70;99.90;;;;;;5071459;28;20266;-59
2022/02/20 08:35:11;;;;;;;7.73;2.67;;;6.70;99.90;;;;;;5071467;28;20598;-59
2022/02/20 08:37:40;;;;;;;8.03;2.70;;;6.70;99.90;;;;;;5070918;28;20240;-58
2022/02/20 08:40:09;;;;;;;6.33;2.83;;;6.70;99.90;;;;;;5071515;28;20211;-59
2022/02/20 08:42:36;;;;;;;9.23;3.37;;;6.80;99.90;;;;;;5071335;28;20212;-59
2022/02/20 08:45:03;;;;;;;10.83;3.07;;;6.80;99.90;;;;;;5071591;28;20239;-59
2022/02/20 08:47:30;;;;;;;10.13;3.43;;;6.80;99.90;;;;;;5071251;28;20200;-59
2022/02/20 08:49:57;;;;;;;7.30;2.33;;;6.90;99.90;;;;;;5070896;28;20578;-59
2022/02/20 08:52:23;;;;;;;5.73;2.97;;;7.00;99.90;;;;;;5071681;28;20208;-59
2022/02/20 08:54:51;;;;;;;5.67;3.27;;;7.00;99.90;;;;;;5071168;28;20271;-58
2022/02/20 08:57:20;;;;;;;7.23;2.90;;;7.00;99.90;;;;;;5070942;28;20265;-60
2022/02/20 08:59:46;;;;;;;10.47;3.13;;;7.10;99.90;;;;;;5071490;28;20263;-59
2022/02/20 09:02:14;;;;;;;5.23;2.83;;;7.10;99.90;;;;;;5071318;28;20208;-60
2022/02/20 09:04:41;;;;;;;9.93;3.27;;;7.10;99.90;;;;;;5071190;28;20257;-60
2022/02/20 09:07:08;;;;;;;8.53;2.70;;;7.20;99.90;;;;;;5070581;28;20231;-60
2022/02/20 09:09:36;;;;;;;5.93;2.10;;;7.20;99.90;;;;;;5071101;28;20205;-59
2022/02/20 09:12:03;;;;;;;5.23;2.07;;;7.30;99.90;;;;;;5070814;28;20232;-60
2022/02/20 09:14:31;;;;;;;5.37;1.70;;;7.40;99.90;;;;;;5071084;28;20251;-60
2022/02/20 09:17:00;;;;;;;7.97;2.10;;;7.40;99.90;;;;;;5071033;28;20225;-60
2022/02/20 09:19:26;;;;;;;6.00;2.50;;;7.50;99.90;;;;;;5070877;28;20714;-60
2022/02/20 09:21:53;;;;;;;7.03;1.80;;;7.50;99.90;;;;;;5071115;28;20270;-60
2022/02/20 09:24:20;;;;;;;1.60;1.10;;;7.60;99.90;;;;;;5059972;28;20229;-60
2022/02/20 09:26:47;;;;;;;5.97;2.13;;;7.70;99.90;;;;;;5069454;28;20926;-60
2022/02/20 09:29:14;;;;;;;9.98;2.60;;;7.70;99.90;;;;;;5069949;28;20423;-60
2022/02/20 09:31:42;;;;;;;4.80;2.05;;;7.80;99.90;;;;;;5069376;28;20412;-60
2022/02/20 09:34:08;;;;;;;5.78;2.05;;;7.90;99.90;;;;;;5071195;28;20469;-60
2022/02/20 09:36:35;;;;;;;5.70;2.38;;;8.00;99.90;;;;;;5072324;28;20933;-61
2022/02/20 09:39:02;;;;;;;7.80;2.63;;;8.10;99.90;;;;;;5072532;28;20412;-61
2022/02/20 09:41:31;;;;;;;8.07;2.60;;;8.10;99.90;;;;;;5072154;28;20920;-61
2022/02/20 09:43:59;;;;;;;5.95;2.20;;;8.00;99.90;;;;;;5072342;28;20415;-61
2022/02/20 09:46:28;;;;;;;5.00;2.50;;;8.10;99.90;;;;;;5072553;28;20418;-60
2022/02/20 09:48:58;;;;;;;5.65;2.30;;;8.10;99.90;;;;;;5072443;28;20502;-59
2022/02/20 09:51:26;;;;;;;5.63;2.50;;;8.20;99.90;;;;;;5072037;28;20415;-62
2022/02/20 09:53:53;;;;;;;7.32;2.60;;;8.20;99.90;;;;;;5072500;28;20833;-61
2022/02/20 09:56:19;;;;;;;9.10;2.70;;;8.20;99.90;;;;;;5072627;28;20418;-61
2022/02/20 09:58:46;;;;;;;7.85;2.70;;;8.10;99.90;;;;;;5071886;28;20422;-61
2022/02/20 10:01:14;;;;;;;6.63;2.80;;;8.20;99.90;;;;;;5072171;28;20427;-61
2022/02/20 10:03:43;;;;;;;6.00;2.70;;;8.20;99.90;;;;;;5071629;28;20778;-61
2022/02/20 10:06:14;;;;;;;7.90;2.53;;;8.30;99.90;;;;;;5072020;28;20925;-62
2022/02/20 10:08:42;;;;;;;4.00;2.40;;;8.20;99.90;;;;;;5072545;28;20422;-61
2022/02/20 10:11:19;;;;;;;6.20;2.53;;;8.20;99.90;;;;;;5072617;28;20465;-62
2022/02/20 10:13:47;;;;;;;5.07;2.35;;;8.30;99.90;;;;;;5072243;28;20412;-61
2022/02/20 10:16:33;;;;;;;5.28;2.35;;;8.40;99.90;;;;;;5072256;28;20407;-62
2022/02/20 10:19:01;;;;;;;6.13;2.35;;;8.30;99.90;;;;;;5072313;28;20441;-61
2022/02/20 10:21:30;;;;;;;5.47;2.20;;;8.40;99.90;;;;;;5072627;28;20852;-61
2022/02/20 10:24:05;;;;;;;7.23;2.10;;;8.40;99.90;;;;;;5072054;28;20914;-60
2022/02/20 10:26:33;;;;;;;5.30;2.25;;;8.40;99.90;;;;;;5071833;28;20419;-59
2022/02/20 10:29:02;;;;;;;6.50;1.97;;;8.50;99.90;;;;;;5071881;28;20786;-60
2022/02/20 10:31:44;;;;;;;7.30;2.30;;;8.40;99.90;;;;;;5071636;28;20426;-61
2022/02/20 10:34:12;;;;;;;4.78;1.90;;;8.50;99.90;;;;;;5072314;28;20423;-62
2022/02/20 10:36:52;;;;;;;5.70;1.67;;;8.50;99.90;;;;;;5071046;28;20436;-63
2022/02/20 10:39:24;;;;;;;4.78;1.58;;;8.50;99.90;;;;;;5071971;28;20767;-60
2022/02/20 10:41:51;;;;;;;4.15;1.70;;;8.50;99.90;;;;;;5071948;28;20419;-66
2022/02/20 10:44:18;;;;;;;4.57;1.63;;;8.50;99.90;;;;;;5071658;28;20422;-66
2022/02/20 10:46:45;;;;;;;4.43;1.80;;;8.60;99.90;;;;;;5071280;28;20415;-65
2022/02/20 10:49:23;;;;;;;2.33;1.03;;;8.60;99.90;;;;;;5072890;28;20267;-64
2022/02/20 10:51:52;;;;;;;4.60;1.27;;;8.60;99.90;;;;;;5072690;28;20212;-62
2022/02/20 10:54:18;;;;;;;1.53;0.93;;;8.60;99.90;;;;;;5072770;28;20286;-61
2022/02/20 10:56:47;;;;;;;7.00;1.23;;;8.60;99.90;;;;;;5072767;28;20590;-60
2022/02/20 10:59:14;;;;;;;9.20;1.63;;;8.60;99.90;;;;;;5072886;28;20291;-59
2022/02/20 11:01:41;;;;;;;8.33;1.87;;;8.60;99.90;;;;;;5073002;28;20216;-56
2022/02/20 11:04:10;;;;;;;3.97;1.57;;;8.60;99.90;;;;;;5071735;28;20225;-59
2022/02/20 11:06:38;;;;;;;4.10;1.30;;;8.60;99.90;;;;;;5072016;28;20286;-61
2022/02/20 11:09:07;;;;;;;9.73;2.07;;;8.70;99.90;;;;;;5072440;28;20293;-60
2022/02/20 11:11:40;;;;;;;6.43;2.70;;;8.70;99.90;;;;;;5072365;28;20216;-60
2022/02/20 11:14:08;;;;;;;4.70;1.40;;;8.70;99.90;;;;;;5071248;28;20715;-62
2022/02/20 11:16:39;;;;;;;6.27;1.60;;;8.70;99.90;;;;;;5072024;28;20210;-61
2022/02/20 11:19:06;;;;;;;8.15;2.25;;;8.70;99.90;;;;;;5070611;28;20407;-61
2022/02/20 11:21:37;;;;;;;5.77;1.63;;;8.80;99.90;;;;;;5072475;28;20673;-59
2022/02/20 11:24:09;;;;;;;6.30;1.77;;;8.90;99.90;;;;;;5072043;28;20260;-60
2022/02/20 11:26:38;;;;;;;5.63;1.83;;;8.90;99.90;;;;;;5071897;28;20251;-59
2022/02/20 11:29:06;;;;;;;9.87;2.00;;;8.90;99.90;;;;;;5072085;28;20665;-62
2022/02/20 11:31:33;;;;;;;4.43;1.50;;;8.90;99.90;;;;;;5071551;28;20206;-60
2022/02/20 11:34:01;;;;;;;4.43;1.50;;;8.90;99.90;;;;;;5071873;28;20230;-60
2022/02/20 11:36:30;;;;;;;6.17;1.50;;;8.90;99.90;;;;;;5071865;28;20218;-59
2022/02/20 11:39:10;;;;;;;4.83;1.43;;;9.00;99.90;;;;;;5071818;28;20227;-59
2022/02/20 11:41:39;;;;;;;6.37;1.30;;;9.00;99.90;;;;;;5072062;28;20253;-59
2022/02/20 11:44:16;;;;;;;2.53;1.07;;;9.00;99.90;;;;;;5070915;28;20231;-59
2022/02/20 11:46:48;;;;;;;7.47;1.70;;;8.90;99.90;;;;;;5071815;28;20208;-58
2022/02/20 11:49:29;;;;;;;6.20;1.90;;;8.90;99.90;;;;;;5071968;28;20296;-60
2022/02/20 11:52:09;;;;;;;10.30;2.07;;;8.90;99.90;;;;;;5071591;28;20210;-57
2022/02/20 11:54:39;;;;;;;5.00;1.70;;;8.90;99.90;;;;;;5071553;28;20261;-59
2022/02/20 11:57:28;;;;;;;5.33;1.83;;;8.90;99.90;;;;;;5076452;28;20680;-58
2022/02/20 12:00:14;;;;;;;3.83;1.07;;;8.90;99.90;;;;;;5073136;28;20287;-58
2022/02/20 12:03:06;;;;;;;9.13;1.50;;;8.90;99.90;;;;;;5071435;28;20206;-58
2022/02/20 12:05:33;;;;;;;5.93;1.70;;;8.90;99.90;;;;;;5071574;28;20228;-57
2022/02/20 12:08:00;;;;;;;5.47;1.40;;;9.00;99.90;;;;;;5071202;28;20202;-58
2022/02/20 12:10:32;;;;;;;9.43;1.90;;;8.90;99.90;;;;;;5071465;28;20208;-58
2022/02/20 12:13:30;;;;;;;4.30;1.27;;;8.90;99.90;;;;;;5071467;28;20220;-59
2022/02/20 12:15:58;;;;;;;8.67;1.80;;;9.00;99.90;;;;;;5071194;28;20245;-59
2022/02/20 12:18:27;;;;;;;4.90;1.60;;;9.00;99.90;;;;;;5071409;28;20230;-60
2022/02/20 12:21:16;;;;;;;4.80;1.60;;;9.00;99.90;;;;;;5071300;28;20212;-62
2022/02/20 12:23:50;;;;;;;6.77;2.07;;;9.00;99.90;;;;;;5070398;28;20226;-61
2022/02/20 12:26:49;;;;;;;4.73;1.37;;;9.00;99.90;;;;;;5070931;28;20210;-62
2022/02/20 12:29:18;;;;;;;2.63;1.23;;;9.00;99.90;;;;;;5071790;28;20211;-60
2022/02/20 12:32:00;;;;;;;6.60;1.70;;;9.00;99.90;;;;;;5071342;28;20225;-60
2022/02/20 12:34:55;;;;;;;8.37;1.80;;;9.10;99.90;;;;;;5070605;28;20356;-60
2022/02/20 12:37:24;;;;;;;4.93;1.70;;;9.10;99.90;;;;;;5071141;28;20231;-61
2022/02/20 12:39:56;;;;;;;4.13;1.83;;;9.10;99.90;;;;;;5070906;28;20210;-60
2022/02/20 12:42:26;;;;;;;6.90;1.60;;;9.00;99.90;;;;;;5071059;28;20661;-59
2022/02/20 12:44:53;;;;;;;10.83;2.27;;;9.00;99.90;;;;;;5070592;28;20228;-55
2022/02/20 12:47:20;;;;;;;7.37;1.67;;;9.10;99.90;;;;;;5071088;28;20584;-57
2022/02/20 12:49:55;;;;;;;11.57;2.20;;;9.10;99.90;;;;;;5071055;28;20734;-56
2022/02/20 12:52:22;;;;;;;5.03;1.57;;;9.10;99.90;;;;;;5070788;28;20177;-56
2022/02/20 12:54:56;;;;;;;6.27;1.83;;;9.10;99.90;;;;;;5070607;28;20283;-62
2022/02/20 12:57:27;;;;;;;12.03;1.80;;;9.00;99.90;;;;;;5071089;28;20233;-61
2022/02/20 12:59:56;;;;;;;6.97;2.03;;;9.00;99.90;;;;;;5071207;28;20249;-61
2022/02/20 13:02:41;;;;;;;7.63;1.83;;;9.00;99.90;;;;;;5071033;28;20213;-59